Bavaria — V2GX5 — position and weather

sailwx.info

Track history (hours):
 
Tides and Currents Weather Stations Pressure Air Temp Water Temp Dewpoint Dewpoint Depression Visibility Wind Speed Wind Dir Waves Ship Positions

Bavaria

Last reported at 2017-Dec-11 17:01 UTC. Time now 2017-Dec-12 14:15 UTC.
Position N 40°39' E 014°13'.

Length 159 m; draft 9.5 m.

Type: Ship (hazmat cat A). MMSI: 305192000.

Date/timePositionNaut miles runAvg speedWind from/ knotsBaromVisibWave heightAir tempDewpointWater temp
2017-Dec-11 17:01N 40°39' E 014°13'1 1.5
2017-Dec-11 16:30N 40°38' E 014°12'1 1.5
2017-Dec-11 16:01N 40°37' E 014°12'1 1.2
2017-Dec-11 15:31N 40°37' E 014°12'1 2.7
2017-Dec-11 15:01N 40°38' E 014°12'1 1.9
2017-Dec-11 14:31N 40°37' E 014°12'2 3.5
2017-Dec-11 14:01N 40°39' E 014°13'2 4.3
2017-Dec-11 13:31N 40°41' E 014°13'0 0.5
2017-Dec-11 13:01N 40°41' E 014°13'1 1.7
2017-Dec-11 12:31N 40°40' E 014°12'1 1.9
2017-Dec-11 12:00N 40°39' E 014°12'1 2.0
2017-Dec-11 11:30N 40°38' E 014°12'1 2.0
2017-Dec-11 11:00N 40°37' E 014°11'1 1.8
2017-Dec-11 10:30N 40°37' E 014°11'2 3.0
2017-Dec-11 10:00N 40°38' E 014°12'2 3.7
2017-Dec-11 09:30N 40°40' E 014°12'1 1.2
2017-Dec-11 09:00N 40°39' E 014°12'1 1.0
2017-Dec-11 08:30N 40°39' E 014°12'0 0.6
2017-Dec-11 08:00N 40°39' E 014°11'1 2.1
2017-Dec-11 07:30N 40°38' E 014°11'125 9.4
2017-Dec-10 18:14N 38°46' E 015°22'416.1
2017-Dec-10 18:00N 38°43' E 015°24'816.0
2017-Dec-10 17:30N 38°36' E 015°30'815.9
2017-Dec-10 17:00N 38°29' E 015°34'815.4
2017-Dec-10 16:30N 38°22' E 015°39'713.4
2017-Dec-10 16:00N 38°15' E 015°41'612.1
2017-Dec-10 15:30N 38°10' E 015°37'815.4
2017-Dec-10 15:00N 38°03' E 015°36'914.6
2017-Dec-10 14:22N 37°54' E 015°41'615.7
2017-Dec-10 14:00N 37°52' E 015°47'815.7
2017-Dec-10 13:30N 37°49' E 015°57'36112.9
2017-Dec-09 09:29N 36°60' E 023°27'1214.0
2017-Dec-09 08:36N 37°11' E 023°32'914.7
2017-Dec-09 07:58N 37°20' E 023°36'714.3
2017-Dec-09 07:30N 37°26' E 023°39'713.8
2017-Dec-09 06:58N 37°33' E 023°41'613.7
2017-Dec-09 06:30N 37°40' E 023°42'714.2
2017-Dec-09 06:00N 37°46' E 023°38'713.5
2017-Dec-09 05:30N 37°53' E 023°37'4 8.9
2017-Dec-09 05:00N 37°57' E 023°35'0 0.7
2017-Dec-09 04:28N 37°57' E 023°35'0 0.0
2017-Dec-09 03:58N 37°57' E 023°35'0 0.0
2017-Dec-09 03:28N 37°57' E 023°35'0 0.0
2017-Dec-09 02:58N 37°57' E 023°35'0 0.0
2017-Dec-09 02:28N 37°57' E 023°35'0 0.0
2017-Dec-09 01:55N 37°57' E 023°35'0 0.0
2017-Dec-09 01:28N 37°57' E 023°35'0 0.0
2017-Dec-09 00:58N 37°57' E 023°35'0 0.0
2017-Dec-09 00:28N 37°57' E 023°35'0 0.0
2017-Dec-08 23:58N 37°57' E 023°35'0 0.0
2017-Dec-08 23:28N 37°57' E 023°35'0 0.0
2017-Dec-08 22:58N 37°57' E 023°35'0 0.0
2017-Dec-08 22:28N 37°57' E 023°35'0 0.0
2017-Dec-08 21:58N 37°57' E 023°35'0 0.0
2017-Dec-08 21:28N 37°57' E 023°35'0 0.0
2017-Dec-08 20:58N 37°57' E 023°35'0 0.0
2017-Dec-08 20:28N 37°57' E 023°35'0 0.0
2017-Dec-08 19:58N 37°57' E 023°35'0 0.0
2017-Dec-08 19:22N 37°57' E 023°35'0 0.0
2017-Dec-08 18:58N 37°57' E 023°35'0 0.0
2017-Dec-08 18:28N 37°57' E 023°35'0 0.0
2017-Dec-08 17:58N 37°57' E 023°35'0 0.0
2017-Dec-08 17:28N 37°57' E 023°35'0 0.0
2017-Dec-08 16:58N 37°57' E 023°35'0 0.0
2017-Dec-08 16:28N 37°57' E 023°35'0 0.0
2017-Dec-08 15:55N 37°57' E 023°35'0 0.0
2017-Dec-08 15:28N 37°57' E 023°35'0 0.0
2017-Dec-08 14:58N 37°57' E 023°35'0 0.0
2017-Dec-08 14:28N 37°57' E 023°35'0 0.0
2017-Dec-08 13:58N 37°57' E 023°35'0 0.0
2017-Dec-08 13:28N 37°57' E 023°35'0 0.0
2017-Dec-08 12:58N 37°57' E 023°35'0 0.0
2017-Dec-08 12:28N 37°57' E 023°35'0 0.0
2017-Dec-08 11:58N 37°57' E 023°35'0 0.0
2017-Dec-08 11:28N 37°57' E 023°35'0 0.0
2017-Dec-08 10:49N 37°57' E 023°35'0 0.0
2017-Dec-08 10:28N 37°57' E 023°35'0 0.0
2017-Dec-08 09:58N 37°57' E 023°35'0 0.0
2017-Dec-08 09:28N 37°57' E 023°35'0 0.0
2017-Dec-08 08:58N 37°57' E 023°35'0 0.0
2017-Dec-08 08:28N 37°57' E 023°35'0 0.0
2017-Dec-08 07:52N 37°57' E 023°35'0 0.0
2017-Dec-08 07:28N 37°57' E 023°35'0 0.0
2017-Dec-08 06:58N 37°57' E 023°35'0 0.1
2017-Dec-08 06:31N 37°57' E 023°35'2 3.6
2017-Dec-08 06:01N 37°56' E 023°36'1 2.1
2017-Dec-08 05:31N 37°55' E 023°36'0 0.5
2017-Dec-08 05:01N 37°55' E 023°36'0 0.6
2017-Dec-08 04:31N 37°54' E 023°35'2 4.4
2017-Dec-08 04:01N 37°52' E 023°35'1 2.6
2017-Dec-08 03:31N 37°51' E 023°35'0 0.3
2017-Dec-08 03:01N 37°51' E 023°35'0 0.4
2017-Dec-08 02:30N 37°51' E 023°35'0 0.4
2017-Dec-08 02:01N 37°51' E 023°35'0 0.1
2017-Dec-08 01:31N 37°51' E 023°35'0 1.0
2017-Dec-08 01:01N 37°51' E 023°35'0 0.5
2017-Dec-08 00:31N 37°51' E 023°35'0 0.5
2017-Dec-08 00:01N 37°51' E 023°35'0 0.6
2017-Dec-07 23:31N 37°52' E 023°35'0 0.6
2017-Dec-07 23:01N 37°52' E 023°35'0 0.7
2017-Dec-07 22:31N 37°52' E 023°35'0 0.2
2017-Dec-07 22:01N 37°52' E 023°35'0 0.3
2017-Dec-07 21:30N 37°52' E 023°35'0 0.6
2017-Dec-07 21:01N 37°52' E 023°34'0 0.3
2017-Dec-07 20:31N 37°52' E 023°34'0 0.7
2017-Dec-07 20:01N 37°52' E 023°35'0 0.7
2017-Dec-07 19:31N 37°52' E 023°34'0 0.2
2017-Dec-07 19:01N 37°52' E 023°34'0 0.3
2017-Dec-07 18:31N 37°52' E 023°34'1 1.0
2017-Dec-07 18:01N 37°51' E 023°35'0 0.3
2017-Dec-07 17:30N 37°51' E 023°35'0 0.5
2017-Dec-07 17:01N 37°51' E 023°35'0 0.3
2017-Dec-07 16:31N 37°52' E 023°34'0 0.8
2017-Dec-07 16:01N 37°51' E 023°35'0 0.5
2017-Dec-07 15:31N 37°52' E 023°35'0 0.2
2017-Dec-07 15:01N 37°52' E 023°35'0 0.1
2017-Dec-07 14:31N 37°52' E 023°35'0 0.2
2017-Dec-07 14:01N 37°51' E 023°35'0 0.1
2017-Dec-07 13:31N 37°52' E 023°35'0 0.4
2017-Dec-07 13:01N 37°51' E 023°35'0 0.5
2017-Dec-07 12:31N 37°51' E 023°35'0 0.1
2017-Dec-07 12:00N 37°51' E 023°35'0 0.5
2017-Dec-07 11:30N 37°52' E 023°35'0 0.3
2017-Dec-07 11:01N 37°52' E 023°35'0 0.4
2017-Dec-07 10:31N 37°52' E 023°35'0 0.4
2017-Dec-07 10:01N 37°52' E 023°34'0 0.3
2017-Dec-07 09:31N 37°52' E 023°34'0 0.7
2017-Dec-07 09:01N 37°51' E 023°35'0 0.3
2017-Dec-07 08:30N 37°51' E 023°34'0 0.6
2017-Dec-07 08:00N 37°51' E 023°34'0 0.7
2017-Dec-07 07:31N 37°51' E 023°34'0 0.3
2017-Dec-07 07:01N 37°51' E 023°34'0 0.2
2017-Dec-07 06:31N 37°51' E 023°34'0 0.2
2017-Dec-07 06:00N 37°51' E 023°34'0 0.5
2017-Dec-07 05:31N 37°51' E 023°34'0 0.7
2017-Dec-07 05:01N 37°51' E 023°35'0 0.3
2017-Dec-07 04:31N 37°51' E 023°35'1 1.2
2017-Dec-07 04:01N 37°50' E 023°35'0 0.4
2017-Dec-07 03:30N 37°50' E 023°35'0 0.5
2017-Dec-07 03:00N 37°50' E 023°35'0 0.7
2017-Dec-07 02:31N 37°50' E 023°35'0 0.4
2017-Dec-07 02:01N 37°50' E 023°35'0 0.5
2017-Dec-07 01:30N 37°51' E 023°35'0 0.5
2017-Dec-07 01:00N 37°51' E 023°35'0 0.5
2017-Dec-07 00:30N 37°51' E 023°34'0 0.5
2017-Dec-07 00:01N 37°51' E 023°34'0 0.4
2017-Dec-06 23:31N 37°51' E 023°34'0 0.3
2017-Dec-06 23:00N 37°51' E 023°34'0 0.3
2017-Dec-06 22:30N 37°52' E 023°34'0 0.4
2017-Dec-06 22:01N 37°52' E 023°34'0 0.4
2017-Dec-06 21:31N 37°52' E 023°34'0 0.2
2017-Dec-06 21:01N 37°52' E 023°34'  
2017-Dec-04 10:31N 37°52' E 023°35'0 0.9
2017-Dec-04 10:00N 37°52' E 023°34'1 1.8
2017-Dec-04 09:31N 37°51' E 023°33'0 0.2
2017-Dec-04 09:00N 37°51' E 023°33'0 0.2
2017-Dec-04 08:30N 37°51' E 023°34'0 0.3
2017-Dec-04 08:00N 37°51' E 023°33'0 0.1
2017-Dec-04 07:31N 37°51' E 023°33'0 0.4
2017-Dec-04 07:01N 37°51' E 023°33'0 0.3
2017-Dec-04 06:31N 37°51' E 023°34'0 0.4
2017-Dec-04 06:00N 37°51' E 023°34'0 0.4
2017-Dec-04 05:31N 37°51' E 023°34'0 0.3
2017-Dec-04 05:00N 37°51' E 023°34'0 0.2
2017-Dec-04 04:31N 37°51' E 023°34'0 0.3
2017-Dec-04 04:00N 37°51' E 023°34'0 0.4
2017-Dec-04 03:31N 37°51' E 023°35'1 1.4
2017-Dec-04 03:01N 37°52' E 023°35'0 0.4
2017-Dec-04 02:31N 37°52' E 023°35'0 0.4
2017-Dec-04 02:01N 37°52' E 023°35'0 0.4
2017-Dec-04 01:31N 37°52' E 023°35'0 0.4
2017-Dec-04 01:01N 37°51' E 023°35'0 0.4
2017-Dec-04 00:30N 37°51' E 023°35'0 0.5
2017-Dec-04 00:00N 37°51' E 023°34'1 1.2
2017-Dec-03 23:30N 37°51' E 023°35'0 0.3
2017-Dec-03 23:00N 37°51' E 023°35'0 0.8
2017-Dec-03 22:31N 37°51' E 023°34'0 0.1
2017-Dec-03 22:00N 37°51' E 023°34'0 0.6
2017-Dec-03 21:30N 37°52' E 023°34'1 1.8
2017-Dec-03 21:01N 37°52' E 023°35'0 0.3
2017-Dec-03 20:30N 37°52' E 023°35'0 0.6
2017-Dec-03 20:01N 37°52' E 023°35'0 0.5
2017-Dec-03 19:31N 37°52' E 023°35'0 0.2
2017-Dec-03 19:00N 37°52' E 023°35'0 0.3
2017-Dec-03 18:30N 37°52' E 023°34'0 0.5
2017-Dec-03 18:01N 37°51' E 023°34'0 0.5
2017-Dec-03 17:31N 37°51' E 023°34'0 0.3
2017-Dec-03 17:00N 37°51' E 023°34'0 0.3
2017-Dec-03 16:30N 37°51' E 023°34'0 0.1
2017-Dec-03 16:00N 37°51' E 023°34'0 0.4
2017-Dec-03 15:31N 37°51' E 023°34'0 0.4
2017-Dec-03 15:01N 37°51' E 023°34'0 0.1
2017-Dec-03 14:30N 37°51' E 023°34'1 1.4
2017-Dec-03 14:00N 37°51' E 023°33'0 0.5
2017-Dec-03 13:31N 37°51' E 023°33'0 0.6
2017-Dec-03 13:00N 37°51' E 023°34'0 0.7
2017-Dec-03 12:30N 37°51' E 023°34'0 0.3
2017-Dec-03 12:01N 37°50' E 023°34'1 1.1
2017-Dec-03 11:30N 37°51' E 023°34'1 1.0
2017-Dec-03 11:01N 37°51' E 023°33'1 1.1
2017-Dec-03 10:30N 37°51' E 023°34'0 0.7
2017-Dec-03 10:00N 37°52' E 023°34'0 0.7
2017-Dec-03 09:30N 37°51' E 023°34'1 2.2
2017-Dec-03 09:00N 37°52' E 023°34'1 1.6
2017-Dec-03 08:31N 37°52' E 023°35'0 0.8
2017-Dec-03 08:00N 37°52' E 023°35'1 1.9
2017-Dec-03 07:31N 37°53' E 023°36'0 0.8
2017-Dec-03 07:00N 37°52' E 023°36'1 1.1
2017-Dec-03 06:30N 37°53' E 023°36'0 0.8
2017-Dec-03 06:00N 37°52' E 023°36'0 0.8
2017-Dec-03 05:30N 37°53' E 023°36'0 0.7
2017-Dec-03 05:01N 37°52' E 023°35'0 0.7
2017-Dec-03 04:31N 37°52' E 023°35'1 1.1
2017-Dec-03 04:00N 37°52' E 023°35'0 1.0
2017-Dec-03 03:30N 37°51' E 023°35'1 1.2
2017-Dec-03 03:01N 37°51' E 023°35'1 1.1
2017-Dec-03 02:31N 37°50' E 023°35'1 2.4
2017-Dec-03 02:01N 37°51' E 023°35'1 1.5
2017-Dec-03 01:31N 37°52' E 023°35'0 0.8
2017-Dec-03 01:00N 37°52' E 023°35'0 0.2
2017-Dec-03 00:31N 37°52' E 023°35'1 1.0
2017-Dec-03 00:01N 37°52' E 023°34'0 0.8
2017-Dec-02 23:30N 37°52' E 023°34'1 1.2
2017-Dec-02 23:00N 37°52' E 023°35'1 1.3
2017-Dec-02 22:30N 37°52' E 023°35'1 1.1
2017-Dec-02 22:01N 37°52' E 023°36'1 1.8
2017-Dec-02 21:31N 37°52' E 023°36'0 0.9
2017-Dec-02 21:01N 37°52' E 023°35'1 1.1
2017-Dec-02 20:31N 37°52' E 023°35'1 1.2
2017-Dec-02 20:00N 37°52' E 023°34'1 2.6
2017-Dec-02 19:30N 37°53' E 023°36'0 0.5
2017-Dec-02 19:00N 37°52' E 023°36'0 0.7
2017-Dec-02 18:30N 37°52' E 023°35'0 0.9
2017-Dec-02 18:00N 37°52' E 023°35'0 0.4
2017-Dec-02 17:30N 37°52' E 023°35'1 2.6
2017-Dec-02 17:00N 37°53' E 023°35'0 0.8
2017-Dec-02 16:31N 37°53' E 023°35'1 1.0
2017-Dec-02 16:00N 37°52' E 023°35'1 1.7
2017-Dec-02 15:30N 37°52' E 023°34'0 0.6
2017-Dec-02 15:00N 37°52' E 023°35'0 0.8
2017-Dec-02 14:31N 37°52' E 023°35'1 1.4
2017-Dec-02 14:00N 37°52' E 023°35'0 0.7
2017-Dec-02 13:30N 37°52' E 023°35'0 0.1
2017-Dec-02 13:00N 37°52' E 023°35'0 0.2
2017-Dec-02 12:30N 37°52' E 023°35'0 0.4
2017-Dec-02 12:00N 37°52' E 023°35'0 0.3
2017-Dec-02 11:30N 37°52' E 023°35'0 0.2
2017-Dec-02 11:00N 37°52' E 023°35'0 0.1
2017-Dec-02 10:30N 37°52' E 023°35'1 1.2
2017-Dec-02 10:00N 37°52' E 023°35'1 1.3
2017-Dec-02 09:30N 37°52' E 023°35'1 1.2
2017-Dec-02 09:00N 37°52' E 023°35'0 1.0
2017-Dec-02 08:30N 37°52' E 023°35'0 1.0
2017-Dec-02 08:00N 37°53' E 023°35'0 0.4
2017-Dec-02 07:30N 37°53' E 023°36'0 0.9
2017-Dec-02 07:01N 37°52' E 023°36'0 0.1
2017-Dec-02 06:30N 37°52' E 023°36'0 0.2
2017-Dec-02 06:00N 37°52' E 023°36'0 0.2
2017-Dec-02 05:30N 37°52' E 023°36'0 0.9
2017-Dec-02 05:00N 37°53' E 023°35'0 0.3
2017-Dec-02 04:30N 37°53' E 023°36'1 1.7
2017-Dec-02 04:00N 37°53' E 023°35'1 1.3
2017-Dec-02 03:30N 37°52' E 023°35'1 2.3
2017-Dec-02 03:01N 37°53' E 023°35'1 1.3
2017-Dec-02 02:30N 37°53' E 023°35'0 0.5
2017-Dec-02 02:00N 37°53' E 023°35'0 0.2
2017-Dec-02 01:30N 37°53' E 023°35'0 0.3
2017-Dec-02 01:00N 37°53' E 023°35'0 0.7
2017-Dec-02 00:30N 37°53' E 023°35'0 0.3
2017-Dec-02 00:00N 37°53' E 023°35'1 1.9
2017-Dec-01 23:31N 37°52' E 023°36'1 1.1
2017-Dec-01 23:00N 37°52' E 023°35'0 0.5
2017-Dec-01 22:31N 37°52' E 023°35'0 0.8
2017-Dec-01 22:01N 37°52' E 023°35'0 0.8
2017-Dec-01 21:30N 37°52' E 023°35'0 0.9
2017-Dec-01 21:01N 37°52' E 023°35'1 2.5
2017-Dec-01 20:30N 37°53' E 023°35'1 1.2
2017-Dec-01 20:00N 37°52' E 023°35'0 0.5
2017-Dec-01 19:30N 37°52' E 023°36'1 1.2
2017-Dec-01 19:00N 37°53' E 023°36'0 0.8
2017-Dec-01 18:31N 37°53' E 023°36'1 1.1
2017-Dec-01 18:00N 37°52' E 023°36'0 0.5
2017-Dec-01 17:30N 37°52' E 023°35'  
Track history (hours):
 
Tides and Currents Weather Stations Pressure Air Temp Water Temp Dewpoint Dewpoint Depression Visibility Wind Speed Wind Dir Waves Ship Positions

Bavaria

Last reported at 2017-Dec-11 17:01 UTC. Time now 2017-Dec-12 14:15 UTC.
Position N 40°39' E 014°13'.

Length 159 m; draft 9.5 m.

Type: Ship (hazmat cat A). MMSI: 305192000.

Date/timePositionNaut miles runAvg speedWind from/ knotsBaromVisibWave heightAir tempDewpointWater temp
2017-Dec-11 17:01N 40°39' E 014°13'1 1.5
2017-Dec-11 16:30N 40°38' E 014°12'1 1.5
2017-Dec-11 16:01N 40°37' E 014°12'1 1.2
2017-Dec-11 15:31N 40°37' E 014°12'1 2.7
2017-Dec-11 15:01N 40°38' E 014°12'1 1.9
2017-Dec-11 14:31N 40°37' E 014°12'2 3.5
2017-Dec-11 14:01N 40°39' E 014°13'2 4.3
2017-Dec-11 13:31N 40°41' E 014°13'0 0.5
2017-Dec-11 13:01N 40°41' E 014°13'1 1.7
2017-Dec-11 12:31N 40°40' E 014°12'1 1.9
2017-Dec-11 12:00N 40°39' E 014°12'1 2.0
2017-Dec-11 11:30N 40°38' E 014°12'1 2.0
2017-Dec-11 11:00N 40°37' E 014°11'1 1.8
2017-Dec-11 10:30N 40°37' E 014°11'2 3.0
2017-Dec-11 10:00N 40°38' E 014°12'2 3.7
2017-Dec-11 09:30N 40°40' E 014°12'1 1.2
2017-Dec-11 09:00N 40°39' E 014°12'1 1.0
2017-Dec-11 08:30N 40°39' E 014°12'0 0.6
2017-Dec-11 08:00N 40°39' E 014°11'1 2.1
2017-Dec-11 07:30N 40°38' E 014°11'125 9.4
2017-Dec-10 18:14N 38°46' E 015°22'416.1
2017-Dec-10 18:00N 38°43' E 015°24'816.0
2017-Dec-10 17:30N 38°36' E 015°30'815.9
2017-Dec-10 17:00N 38°29' E 015°34'815.4
2017-Dec-10 16:30N 38°22' E 015°39'713.4
2017-Dec-10 16:00N 38°15' E 015°41'612.1
2017-Dec-10 15:30N 38°10' E 015°37'815.4
2017-Dec-10 15:00N 38°03' E 015°36'914.6
2017-Dec-10 14:22N 37°54' E 015°41'615.7
2017-Dec-10 14:00N 37°52' E 015°47'815.7
2017-Dec-10 13:30N 37°49' E 015°57'36112.9
2017-Dec-09 09:29N 36°60' E 023°27'1214.0
2017-Dec-09 08:36N 37°11' E 023°32'914.7
2017-Dec-09 07:58N 37°20' E 023°36'714.3
2017-Dec-09 07:30N 37°26' E 023°39'713.8
2017-Dec-09 06:58N 37°33' E 023°41'613.7
2017-Dec-09 06:30N 37°40' E 023°42'714.2
2017-Dec-09 06:00N 37°46' E 023°38'713.5
2017-Dec-09 05:30N 37°53' E 023°37'4 8.9
2017-Dec-09 05:00N 37°57' E 023°35'0 0.7
2017-Dec-09 04:28N 37°57' E 023°35'0 0.0
2017-Dec-09 03:58N 37°57' E 023°35'0 0.0
2017-Dec-09 03:28N 37°57' E 023°35'0 0.0
2017-Dec-09 02:58N 37°57' E 023°35'0 0.0
2017-Dec-09 02:28N 37°57' E 023°35'0 0.0
2017-Dec-09 01:55N 37°57' E 023°35'0 0.0
2017-Dec-09 01:28N 37°57' E 023°35'0 0.0
2017-Dec-09 00:58N 37°57' E 023°35'0 0.0
2017-Dec-09 00:28N 37°57' E 023°35'0 0.0
2017-Dec-08 23:58N 37°57' E 023°35'0 0.0
2017-Dec-08 23:28N 37°57' E 023°35'0 0.0
2017-Dec-08 22:58N 37°57' E 023°35'0 0.0
2017-Dec-08 22:28N 37°57' E 023°35'0 0.0
2017-Dec-08 21:58N 37°57' E 023°35'0 0.0
2017-Dec-08 21:28N 37°57' E 023°35'0 0.0
2017-Dec-08 20:58N 37°57' E 023°35'0 0.0
2017-Dec-08 20:28N 37°57' E 023°35'0 0.0
2017-Dec-08 19:58N 37°57' E 023°35'0 0.0
2017-Dec-08 19:22N 37°57' E 023°35'0 0.0
2017-Dec-08 18:58N 37°57' E 023°35'0 0.0
2017-Dec-08 18:28N 37°57' E 023°35'0 0.0
2017-Dec-08 17:58N 37°57' E 023°35'0 0.0
2017-Dec-08 17:28N 37°57' E 023°35'0 0.0
2017-Dec-08 16:58N 37°57' E 023°35'0 0.0
2017-Dec-08 16:28N 37°57' E 023°35'0 0.0
2017-Dec-08 15:55N 37°57' E 023°35'0 0.0
2017-Dec-08 15:28N 37°57' E 023°35'0 0.0
2017-Dec-08 14:58N 37°57' E 023°35'0 0.0
2017-Dec-08 14:28N 37°57' E 023°35'0 0.0
2017-Dec-08 13:58N 37°57' E 023°35'0 0.0
2017-Dec-08 13:28N 37°57' E 023°35'0 0.0
2017-Dec-08 12:58N 37°57' E 023°35'0 0.0
2017-Dec-08 12:28N 37°57' E 023°35'0 0.0
2017-Dec-08 11:58N 37°57' E 023°35'0 0.0
2017-Dec-08 11:28N 37°57' E 023°35'0 0.0
2017-Dec-08 10:49N 37°57' E 023°35'0 0.0
2017-Dec-08 10:28N 37°57' E 023°35'0 0.0
2017-Dec-08 09:58N 37°57' E 023°35'0 0.0
2017-Dec-08 09:28N 37°57' E 023°35'0 0.0
2017-Dec-08 08:58N 37°57' E 023°35'0 0.0
2017-Dec-08 08:28N 37°57' E 023°35'0 0.0
2017-Dec-08 07:52N 37°57' E 023°35'0 0.0
2017-Dec-08 07:28N 37°57' E 023°35'0 0.0
2017-Dec-08 06:58N 37°57' E 023°35'0 0.1
2017-Dec-08 06:31N 37°57' E 023°35'2 3.6
2017-Dec-08 06:01N 37°56' E 023°36'1 2.1
2017-Dec-08 05:31N 37°55' E 023°36'0 0.5
2017-Dec-08 05:01N 37°55' E 023°36'0 0.6
2017-Dec-08 04:31N 37°54' E 023°35'2 4.4
2017-Dec-08 04:01N 37°52' E 023°35'1 2.6
2017-Dec-08 03:31N 37°51' E 023°35'0 0.3
2017-Dec-08 03:01N 37°51' E 023°35'0 0.4
2017-Dec-08 02:30N 37°51' E 023°35'0 0.4
2017-Dec-08 02:01N 37°51' E 023°35'0 0.1
2017-Dec-08 01:31N 37°51' E 023°35'0 1.0
2017-Dec-08 01:01N 37°51' E 023°35'0 0.5
2017-Dec-08 00:31N 37°51' E 023°35'0 0.5
2017-Dec-08 00:01N 37°51' E 023°35'0 0.6
2017-Dec-07 23:31N 37°52' E 023°35'0 0.6
2017-Dec-07 23:01N 37°52' E 023°35'0 0.7
2017-Dec-07 22:31N 37°52' E 023°35'0 0.2
2017-Dec-07 22:01N 37°52' E 023°35'0 0.3
2017-Dec-07 21:30N 37°52' E 023°35'0 0.6
2017-Dec-07 21:01N 37°52' E 023°34'0 0.3
2017-Dec-07 20:31N 37°52' E 023°34'0 0.7
2017-Dec-07 20:01N 37°52' E 023°35'0 0.7
2017-Dec-07 19:31N 37°52' E 023°34'0 0.2
2017-Dec-07 19:01N 37°52' E 023°34'0 0.3
2017-Dec-07 18:31N 37°52' E 023°34'1 1.0
2017-Dec-07 18:01N 37°51' E 023°35'0 0.3
2017-Dec-07 17:30N 37°51' E 023°35'0 0.5
2017-Dec-07 17:01N 37°51' E 023°35'0 0.3
2017-Dec-07 16:31N 37°52' E 023°34'0 0.8
2017-Dec-07 16:01N 37°51' E 023°35'0 0.5
2017-Dec-07 15:31N 37°52' E 023°35'0 0.2
2017-Dec-07 15:01N 37°52' E 023°35'0 0.1
2017-Dec-07 14:31N 37°52' E 023°35'0 0.2
2017-Dec-07 14:01N 37°51' E 023°35'0 0.1
2017-Dec-07 13:31N 37°52' E 023°35'0 0.4
2017-Dec-07 13:01N 37°51' E 023°35'0 0.5
2017-Dec-07 12:31N 37°51' E 023°35'0 0.1
2017-Dec-07 12:00N 37°51' E 023°35'0 0.5
2017-Dec-07 11:30N 37°52' E 023°35'0 0.3
2017-Dec-07 11:01N 37°52' E 023°35'0 0.4
2017-Dec-07 10:31N 37°52' E 023°35'0 0.4
2017-Dec-07 10:01N 37°52' E 023°34'0 0.3
2017-Dec-07 09:31N 37°52' E 023°34'0 0.7
2017-Dec-07 09:01N 37°51' E 023°35'0 0.3
2017-Dec-07 08:30N 37°51' E 023°34'0 0.6
2017-Dec-07 08:00N 37°51' E 023°34'0 0.7
2017-Dec-07 07:31N 37°51' E 023°34'0 0.3
2017-Dec-07 07:01N 37°51' E 023°34'0 0.2
2017-Dec-07 06:31N 37°51' E 023°34'0 0.2
2017-Dec-07 06:00N 37°51' E 023°34'0 0.5
2017-Dec-07 05:31N 37°51' E 023°34'0 0.7
2017-Dec-07 05:01N 37°51' E 023°35'0 0.3
2017-Dec-07 04:31N 37°51' E 023°35'1 1.2
2017-Dec-07 04:01N 37°50' E 023°35'0 0.4
2017-Dec-07 03:30N 37°50' E 023°35'0 0.5
2017-Dec-07 03:00N 37°50' E 023°35'0 0.7
2017-Dec-07 02:31N 37°50' E 023°35'0 0.4
2017-Dec-07 02:01N 37°50' E 023°35'0 0.5
2017-Dec-07 01:30N 37°51' E 023°35'0 0.5
2017-Dec-07 01:00N 37°51' E 023°35'0 0.5
2017-Dec-07 00:30N 37°51' E 023°34'0 0.5
2017-Dec-07 00:01N 37°51' E 023°34'0 0.4
2017-Dec-06 23:31N 37°51' E 023°34'0 0.3
2017-Dec-06 23:00N 37°51' E 023°34'0 0.3
2017-Dec-06 22:30N 37°52' E 023°34'0 0.4
2017-Dec-06 22:01N 37°52' E 023°34'0 0.4
2017-Dec-06 21:31N 37°52' E 023°34'0 0.2
2017-Dec-06 21:01N 37°52' E 023°34'  
2017-Dec-04 10:31N 37°52' E 023°35'0 0.9
2017-Dec-04 10:00N 37°52' E 023°34'1 1.8
2017-Dec-04 09:31N 37°51' E 023°33'0 0.2
2017-Dec-04 09:00N 37°51' E 023°33'0 0.2
2017-Dec-04 08:30N 37°51' E 023°34'0 0.3
2017-Dec-04 08:00N 37°51' E 023°33'0 0.1
2017-Dec-04 07:31N 37°51' E 023°33'0 0.4
2017-Dec-04 07:01N 37°51' E 023°33'0 0.3
2017-Dec-04 06:31N 37°51' E 023°34'0 0.4
2017-Dec-04 06:00N 37°51' E 023°34'0 0.4
2017-Dec-04 05:31N 37°51' E 023°34'0 0.3
2017-Dec-04 05:00N 37°51' E 023°34'0 0.2
2017-Dec-04 04:31N 37°51' E 023°34'0 0.3
2017-Dec-04 04:00N 37°51' E 023°34'0 0.4
2017-Dec-04 03:31N 37°51' E 023°35'1 1.4
2017-Dec-04 03:01N 37°52' E 023°35'0 0.4
2017-Dec-04 02:31N 37°52' E 023°35'0 0.4
2017-Dec-04 02:01N 37°52' E 023°35'0 0.4
2017-Dec-04 01:31N 37°52' E 023°35'0 0.4
2017-Dec-04 01:01N 37°51' E 023°35'0 0.4
2017-Dec-04 00:30N 37°51' E 023°35'0 0.5
2017-Dec-04 00:00N 37°51' E 023°34'1 1.2
2017-Dec-03 23:30N 37°51' E 023°35'0 0.3
2017-Dec-03 23:00N 37°51' E 023°35'0 0.8
2017-Dec-03 22:31N 37°51' E 023°34'0 0.1
2017-Dec-03 22:00N 37°51' E 023°34'0 0.6
2017-Dec-03 21:30N 37°52' E 023°34'1 1.8
2017-Dec-03 21:01N 37°52' E 023°35'0 0.3
2017-Dec-03 20:30N 37°52' E 023°35'0 0.6
2017-Dec-03 20:01N 37°52' E 023°35'0 0.5
2017-Dec-03 19:31N 37°52' E 023°35'0 0.2
2017-Dec-03 19:00N 37°52' E 023°35'0 0.3
2017-Dec-03 18:30N 37°52' E 023°34'0 0.5
2017-Dec-03 18:01N 37°51' E 023°34'0 0.5
2017-Dec-03 17:31N 37°51' E 023°34'0 0.3
2017-Dec-03 17:00N 37°51' E 023°34'0 0.3
2017-Dec-03 16:30N 37°51' E 023°34'0 0.1
2017-Dec-03 16:00N 37°51' E 023°34'0 0.4
2017-Dec-03 15:31N 37°51' E 023°34'0 0.4
2017-Dec-03 15:01N 37°51' E 023°34'0 0.1
2017-Dec-03 14:30N 37°51' E 023°34'1 1.4
2017-Dec-03 14:00N 37°51' E 023°33'0 0.5
2017-Dec-03 13:31N 37°51' E 023°33'0 0.6
2017-Dec-03 13:00N 37°51' E 023°34'0 0.7
2017-Dec-03 12:30N 37°51' E 023°34'0 0.3
2017-Dec-03 12:01N 37°50' E 023°34'1 1.1
2017-Dec-03 11:30N 37°51' E 023°34'1 1.0
2017-Dec-03 11:01N 37°51' E 023°33'1 1.1
2017-Dec-03 10:30N 37°51' E 023°34'0 0.7
2017-Dec-03 10:00N 37°52' E 023°34'0 0.7
2017-Dec-03 09:30N 37°51' E 023°34'1 2.2
2017-Dec-03 09:00N 37°52' E 023°34'1 1.6
2017-Dec-03 08:31N 37°52' E 023°35'0 0.8
2017-Dec-03 08:00N 37°52' E 023°35'1 1.9
2017-Dec-03 07:31N 37°53' E 023°36'0 0.8
2017-Dec-03 07:00N 37°52' E 023°36'1 1.1
2017-Dec-03 06:30N 37°53' E 023°36'0 0.8
2017-Dec-03 06:00N 37°52' E 023°36'0 0.8
2017-Dec-03 05:30N 37°53' E 023°36'0 0.7
2017-Dec-03 05:01N 37°52' E 023°35'0 0.7
2017-Dec-03 04:31N 37°52' E 023°35'1 1.1
2017-Dec-03 04:00N 37°52' E 023°35'0 1.0
2017-Dec-03 03:30N 37°51' E 023°35'1 1.2
2017-Dec-03 03:01N 37°51' E 023°35'1 1.1
2017-Dec-03 02:31N 37°50' E 023°35'1 2.4
2017-Dec-03 02:01N 37°51' E 023°35'1 1.5
2017-Dec-03 01:31N 37°52' E 023°35'0 0.8
2017-Dec-03 01:00N 37°52' E 023°35'0 0.2
2017-Dec-03 00:31N 37°52' E 023°35'1 1.0
2017-Dec-03 00:01N 37°52' E 023°34'0 0.8
2017-Dec-02 23:30N 37°52' E 023°34'1 1.2
2017-Dec-02 23:00N 37°52' E 023°35'1 1.3
2017-Dec-02 22:30N 37°52' E 023°35'1 1.1
2017-Dec-02 22:01N 37°52' E 023°36'1 1.8
2017-Dec-02 21:31N 37°52' E 023°36'0 0.9
2017-Dec-02 21:01N 37°52' E 023°35'1 1.1
2017-Dec-02 20:31N 37°52' E 023°35'1 1.2
2017-Dec-02 20:00N 37°52' E 023°34'1 2.6
2017-Dec-02 19:30N 37°53' E 023°36'0 0.5
2017-Dec-02 19:00N 37°52' E 023°36'0 0.7
2017-Dec-02 18:30N 37°52' E 023°35'0 0.9
2017-Dec-02 18:00N 37°52' E 023°35'0 0.4
2017-Dec-02 17:30N 37°52' E 023°35'1 2.6
2017-Dec-02 17:00N 37°53' E 023°35'0 0.8
2017-Dec-02 16:31N 37°53' E 023°35'1 1.0
2017-Dec-02 16:00N 37°52' E 023°35'1 1.7
2017-Dec-02 15:30N 37°52' E 023°34'0 0.6
2017-Dec-02 15:00N 37°52' E 023°35'0 0.8
2017-Dec-02 14:31N 37°52' E 023°35'1 1.4
2017-Dec-02 14:00N 37°52' E 023°35'0 0.7
2017-Dec-02 13:30N 37°52' E 023°35'0 0.1
2017-Dec-02 13:00N 37°52' E 023°35'0 0.2
2017-Dec-02 12:30N 37°52' E 023°35'0 0.4
2017-Dec-02 12:00N 37°52' E 023°35'0 0.3
2017-Dec-02 11:30N 37°52' E 023°35'0 0.2
2017-Dec-02 11:00N 37°52' E 023°35'0 0.1
2017-Dec-02 10:30N 37°52' E 023°35'1 1.2
2017-Dec-02 10:00N 37°52' E 023°35'1 1.3
2017-Dec-02 09:30N 37°52' E 023°35'1 1.2
2017-Dec-02 09:00N 37°52' E 023°35'0 1.0
2017-Dec-02 08:30N 37°52' E 023°35'0 1.0
2017-Dec-02 08:00N 37°53' E 023°35'0 0.4
2017-Dec-02 07:30N 37°53' E 023°36'0 0.9
2017-Dec-02 07:01N 37°52' E 023°36'0 0.1
2017-Dec-02 06:30N 37°52' E 023°36'0 0.2
2017-Dec-02 06:00N 37°52' E 023°36'0 0.2
2017-Dec-02 05:30N 37°52' E 023°36'0 0.9
2017-Dec-02 05:00N 37°53' E 023°35'0 0.3
2017-Dec-02 04:30N 37°53' E 023°36'1 1.7
2017-Dec-02 04:00N 37°53' E 023°35'1 1.3
2017-Dec-02 03:30N 37°52' E 023°35'1 2.3
2017-Dec-02 03:01N 37°53' E 023°35'1 1.3
2017-Dec-02 02:30N 37°53' E 023°35'0 0.5
2017-Dec-02 02:00N 37°53' E 023°35'0 0.2
2017-Dec-02 01:30N 37°53' E 023°35'0 0.3
2017-Dec-02 01:00N 37°53' E 023°35'0 0.7
2017-Dec-02 00:30N 37°53' E 023°35'0 0.3
2017-Dec-02 00:00N 37°53' E 023°35'1 1.9
2017-Dec-01 23:31N 37°52' E 023°36'1 1.1
2017-Dec-01 23:00N 37°52' E 023°35'0 0.5
2017-Dec-01 22:31N 37°52' E 023°35'0 0.8
2017-Dec-01 22:01N 37°52' E 023°35'0 0.8
2017-Dec-01 21:30N 37°52' E 023°35'0 0.9
2017-Dec-01 21:01N 37°52' E 023°35'1 2.5
2017-Dec-01 20:30N 37°53' E 023°35'1 1.2
2017-Dec-01 20:00N 37°52' E 023°35'0 0.5
2017-Dec-01 19:30N 37°52' E 023°36'1 1.2
2017-Dec-01 19:00N 37°53' E 023°36'0 0.8
2017-Dec-01 18:31N 37°53' E 023°36'1 1.1
2017-Dec-01 18:00N 37°52' E 023°36'0 0.5
2017-Dec-01 17:30N 37°52' E 023°35'  

Dump ship's entire track history